Latest Weather Observations for Middle Percy Island

IDQ60801

Issued at 4:32 am EST Tuesday 24 October 2017 (issued every 30 minutes, with the page automatically refreshed every 10 minutes)

About weather observations | Map of weather stations | Latest weather observations for QLD | Other Formats
Station Details ID: 200001 Name: MIDDLE PERCY ISLAND Lat: -21.66 Lon: 150.27 Height: 208.7 m
Data from the previous 72 hours. | See also: Recent months at Middle Percy Island
Date/Time
EST
Temp
°C
App
Temp
°C
Dew
Point
°C
Rel
Hum
%
Delta-T
°C
Wind Press
QNH
hPa
Press
MSL
hPa
Rain since
9am
mm
Dir  Spd
km/h
Gust
km/h
Spd
kts
Gust
kts
24/04:30am 20.8 21.1 17.0 79 2.3 E 11 20 6 11 1017.2 1016.2 0.0
24/04:00am 20.9 19.6 16.9 78 2.5 ESE 19 28 10 15 1017.0 1016.0 0.0
24/03:30am 20.6 20.1 17.0 80 2.2 ESE 15 22 8 12 1016.8 1015.8 0.0
24/03:00am 20.7 20.7 17.1 80 2.2 ESE 13 19 7 10 1016.5 1015.5 0.0
24/02:30am 20.8 21.1 17.0 79 2.3 ESE 11 19 6 10 1016.2 1015.2 0.0
24/02:00am 20.7 21.2 17.5 82 2.0 E 11 19 6 10 1016.3 1015.3 0.0
24/01:30am 20.8 21.0 17.6 82 2.0 E 13 20 7 11 1016.4 1015.4 0.0
24/01:00am 20.9 20.6 17.3 80 2.2 E 15 22 8 12 1016.4 1015.4 0.0
24/12:30am 20.9 20.7 17.7 82 2.0 E 15 19 8 10 1016.8 1015.8 0.0
24/12:00am 20.9 21.0 17.5 81 2.1 ENE 13 19 7 10 1016.8 1015.8 0.0
 
Date/Time
EST
Temp
°C
App
Temp
°C
Dew
Point
°C
Rel
Hum
%
Delta-T
°C
Wind Press
QNH
hPa
Press
MSL
hPa
Rain since
9am
mm
Dir  Spd
km/h
Gust
km/h
Spd
kts
Gust
kts
23/11:30pm 20.9 21.3 17.3 80 2.2 E 11 17 6 9 1017.0 1016.0 0.0
23/11:00pm 21.0 21.2 17.6 81 2.1 E 13 17 7 9 1017.0 1016.0 0.0
23/10:30pm 21.1 21.1 17.3 79 2.4 E 13 19 7 10 1017.2 1016.2 0.0
23/10:00pm 21.3 21.2 16.9 76 2.7 E 13 19 7 10 1017.2 1016.2 0.0
23/09:30pm 21.3 20.9 16.3 73 3.0 E 13 17 7 9 1017.1 1016.1 0.0
23/09:00pm 21.4 21.3 17.0 76 2.7 E 13 19 7 10 1016.9 1015.9 0.0
23/08:30pm 21.5 21.0 16.9 75 2.8 ENE 15 19 8 10 1016.6 1015.6 0.0
23/08:00pm 21.2 20.7 16.0 72 3.1 ENE 13 19 7 10 1016.3 1015.3 0.0
23/07:30pm 21.3 20.6 16.3 73 3.0 E 15 20 8 11 1016.0 1015.0 0.0
23/07:00pm 21.3 20.9 16.3 73 3.0 E 13 17 7 9 1015.8 1014.8 0.0
23/06:30pm 21.3 21.1 15.6 70 3.4 E 11 15 6 8 1015.1 1014.2 0.0
23/06:00pm 21.5 21.8 16.0 71 3.3 ENE 9 15 5 8 1014.8 1013.8 0.0
23/05:30pm 22.2 21.4 15.1 64 4.3 E 13 20 7 11 1014.5 1013.5 0.0
23/05:00pm 22.9 21.9 15.7 64 4.4 ESE 15 24 8 13 1014.2 1013.2 0.0
23/04:30pm 23.2 21.6 15.0 60 4.9 ESE 17 30 9 16 1014.0 1013.0 0.0
23/04:00pm 23.6 21.8 15.4 60 5.0 ESE 19 28 10 15 1013.8 1012.8 0.0
23/03:30pm 23.8 22.1 15.8 61 4.9 ESE 19 28 10 15 1013.8 1012.8 0.0
23/03:00pm 23.9 22.3 14.9 57 5.4 ESE 17 28 9 15 1014.0 1013.0 0.0
23/02:30pm 24.2 22.3 15.1 56 5.5 ESE 19 28 10 15 1014.1 1013.1 0.0
23/02:00pm 24.4 22.9 15.3 57 5.5 ESE 17 24 9 13 1014.3 1013.3 0.0
23/01:30pm 24.4 24.0 15.3 57 5.5 ESE 11 20 6 11 1014.6 1013.6 0.0
23/01:00pm 24.3 24.2 16.0 60 5.1 ESE 11 17 6 9 1014.8 1013.8 0.0
23/12:30pm 23.7 22.7 14.7 57 5.4 ESE 13 24 7 13 1015.4 1014.4 0.0
23/12:00pm 25.1 24.7 12.3 45 7.4 SE 6 15 3 8 1015.4 1014.4 0.0
23/11:30am 24.2 23.4 12.8 49 6.6 SSE 9 15 5 8 1015.8 1014.8 0.0
23/11:00am 23.9 23.4 12.2 48 6.7 SSE 6 11 3 6 1016.1 1015.1 0.0
23/10:30am 22.3 22.8 15.6 66 4.0 SSE 7 13 4 7 1016.2 1015.2 0.0
23/10:00am 22.6 22.3 16.4 68 3.8 SE 13 24 7 13 1016.2 1015.2 0.0
23/09:30am 22.2 22.0 15.8 67 3.9 ESE 11 17 6 9 1015.9 1014.9 0.0
23/09:00am 21.2 20.4 17.0 77 2.6 ESE 17 22 9 12 1016.0 1015.0 0.0
23/08:30am 19.3 16.6 16.7 85 1.6 SSE 26 37 14 20 1016.1 1015.1 0.0
23/08:00am 17.6 11.8 15.0 85 1.5 S 39 61 21 33 1015.5 1014.5 0.0
23/07:46am 17.8 12.1 14.3 80 2.0 S 37 74 20 40 1014.3 1013.3 0.0
23/07:44am 18.2 14.8 14.7 80 2.0 SSW 26 59 14 32 1015.1 1014.2 0.0
23/07:39am 22.3 23.1 17.2 73 3.2 WNW 9 43 5 23 1015.4 1014.4 0.0
23/07:30am 22.8 24.4 17.9 74 3.1 N 6 9 3 5 1015.2 1014.3 0.0
23/07:00am 23.4 25.0 17.8 71 3.5 NNE 6 9 3 5 1014.5 1013.5 0.0
23/06:30am 22.5 24.7 18.3 77 2.7 NNE 4 7 2 4 1014.4 1013.4 0.0
23/06:00am 21.4 23.1 18.4 83 1.9 NNE 7 13 4 7 1013.7 1012.7 0.0
23/05:30am 20.9 21.8 18.5 86 1.5 NNE 11 15 6 8 1013.4 1012.4 0.0
23/05:00am 20.6 21.1 18.4 87 1.4 NNE 13 17 7 9 1013.2 1012.2 0.0
23/04:30am 20.8 21.3 18.4 86 1.5 NNE 13 17 7 9 1013.0 1012.0 0.0
23/04:00am 20.6 21.0 18.2 86 1.5 NNE 13 15 7 8 1012.8 1011.8 0.0
23/03:30am 20.7 20.8 18.3 86 1.5 NNE 15 19 8 10 1012.5 1011.5 0.0
23/03:00am 20.7 20.6 17.9 84 1.7 NNE 15 19 8 10 1012.4 1011.4 0.0
23/02:30am 20.9 20.7 18.5 86 1.5 NNE 17 24 9 13 1012.3 1011.3 0.0
23/02:00am 20.8 21.8 18.6 87 1.4 NE 11 15 6 8 1012.7 1011.7 0.0
23/01:30am 20.9 22.2 18.5 86 1.5 NE 9 13 5 7 1013.3 1012.3 0.0
23/01:00am 21.1 22.4 18.5 85 1.6 NE 9 13 5 7 1013.7 1012.7 0.0
23/12:30am 21.2 22.3 18.9 87 1.5 NE 11 15 6 8 1013.9 1012.9 0.0
23/12:00am 21.2 22.6 18.6 85 1.6 NE 9 17 5 9 1014.0 1013.0 0.0
 
Date/Time
EST
Temp
°C
App
Temp
°C
Dew
Point
°C
Rel
Hum
%
Delta-T
°C
Wind Press
QNH
hPa
Press
MSL
hPa
Rain since
9am
mm
Dir  Spd
km/h
Gust
km/h
Spd
kts
Gust
kts
22/11:30pm 21.3 22.7 18.7 85 1.6 NE 9 15 5 8 1014.3 1013.3 0.0
22/11:00pm 21.4 22.2 19.0 86 1.5 ENE 13 19 7 10 1014.3 1013.3 0.0
22/10:30pm 21.4 21.8 19.0 86 1.5 ENE 15 20 8 11 1014.3 1013.3 0.0
22/10:00pm 21.4 22.1 18.8 85 1.6 ENE 13 20 7 11 1014.4 1013.4 0.0
22/09:30pm 21.5 21.5 18.9 85 1.7 ENE 17 24 9 13 1014.1 1013.1 0.0
22/09:00pm 21.5 21.8 18.7 84 1.8 ENE 15 24 8 13 1014.0 1013.0 0.0
22/08:30pm 21.5 21.1 18.9 85 1.7 ENE 19 28 10 15 1013.5 1012.5 0.0
22/08:00pm 21.4 21.0 18.8 85 1.6 ENE 19 26 10 14 1013.1 1012.1 0.0
22/07:30pm 21.4 20.9 18.6 84 1.8 ENE 19 26 10 14 1012.9 1011.9 0.0
22/07:00pm 21.4 21.3 18.8 85 1.6 ENE 17 26 9 14 1012.5 1011.5 0.0
22/06:30pm 21.4 22.5 18.8 85 1.6 E 11 20 6 11 1012.4 1011.4 0.0
22/06:00pm 21.7 22.6 18.5 82 2.0 E 11 19 6 10 1012.1 1011.1 0.0
22/05:30pm 22.4 23.4 18.6 79 2.4 ESE 11 20 6 11 1011.7 1010.7 0.0
22/05:00pm 22.8 22.8 18.1 75 3.0 ESE 15 24 8 13 1011.4 1010.4 0.0
22/04:30pm 23.0 23.0 18.1 74 3.1 ESE 15 24 8 13 1011.4 1010.4 0.0
22/04:00pm 23.3 22.9 18.0 72 3.3 SE 17 24 9 13 1011.3 1010.3 0.0
22/03:30pm 23.8 23.7 18.7 73 3.3 SE 17 22 9 12 1011.4 1010.4 0.0
22/03:00pm 24.0 23.3 18.2 70 3.7 SE 19 24 10 13 1011.4 1010.4 0.0
22/02:30pm 24.1 23.8 18.3 70 3.7 ESE 17 24 9 13 1011.6 1010.6 0.0
22/02:00pm 24.2 24.1 17.9 68 4.0 SE 15 20 8 11 1011.9 1010.9 0.0
22/01:30pm 25.0 25.3 18.7 68 4.0 SE 15 24 8 13 1012.0 1011.0 0.0
22/01:00pm 24.6 24.5 18.8 70 3.7 SE 17 24 9 13 1012.2 1011.2 0.0
22/12:30pm 24.5 24.0 18.7 70 3.7 SE 19 26 10 14 1012.4 1011.4 0.0
22/12:00pm 25.3 25.6 19.7 71 3.6 SE 17 22 9 12 1012.7 1011.7 0.0
22/11:30am 24.2 24.7 19.3 74 3.2 SE 15 22 8 12 1013.1 1012.1 0.0
22/11:00am 23.7 23.6 18.8 74 3.1 SSE 17 22 9 12 1013.3 1012.3 0.0
22/10:30am 23.3 23.1 18.6 75 3.0 SSE 17 24 9 13 1013.3 1012.3 0.0
22/10:00am 23.4 22.8 18.5 74 3.1 SSE 19 22 10 12 1013.4 1012.4 0.0
22/09:30am 23.4 22.8 18.9 76 2.9 S 20 26 11 14 1013.3 1012.3 0.0
22/09:00am 23.0 22.9 18.7 77 2.7 SSE 17 20 9 11 1013.4 1012.4 3.0
22/08:30am 22.3 21.7 18.5 79 2.4 S 19 26 10 14 1013.5 1012.5 3.0
22/08:00am 22.1 21.6 18.7 81 2.2 S 19 28 10 15 1013.4 1012.4 3.0
22/07:30am 21.9 20.7 18.5 81 2.1 S 22 28 12 15 1013.0 1012.0 3.0
22/07:00am 21.9 21.0 18.3 80 2.3 S 20 28 11 15 1012.8 1011.8 3.0
22/06:30am 21.5 21.6 18.3 82 2.0 S 15 20 8 11 1012.7 1011.7 3.0
22/06:00am 21.0 20.6 18.0 83 1.9 S 17 20 9 11 1012.5 1011.5 3.0
22/05:30am 20.8 21.3 18.4 86 1.5 S 13 19 7 10 1012.3 1011.3 3.0
22/05:00am 20.9 21.4 18.3 85 1.6 S 13 17 7 9 1012.1 1011.1 3.0
22/04:30am 21.0 22.5 18.8 87 1.4 S 9 11 5 6 1012.1 1011.1 3.0
22/04:00am 20.8 21.5 18.0 84 1.8 S 11 13 6 7 1011.8 1010.8 3.0
22/03:30am 20.8 22.0 18.2 85 1.6 S 9 13 5 7 1011.9 1010.9 3.0
22/03:00am 20.7 21.8 18.1 85 1.6 S 9 13 5 7 1011.6 1010.6 3.0
22/02:30am 21.0 22.4 18.6 86 1.5 S 9 13 5 7 1012.1 1011.1 3.0
22/02:00am 20.9 23.0 19.0 89 1.2 S 6 7 3 4 1012.5 1011.5 3.0
22/01:30am 20.9 22.7 18.8 88 1.3 SSE 7 13 4 7 1012.6 1011.6 3.0
22/01:00am 20.9 22.7 18.7 87 1.4 S 7 9 4 5 1012.9 1011.9 3.0
22/12:30am 20.8 22.2 18.6 87 1.4 S 9 11 5 6 1013.1 1012.1 3.0
22/12:00am 20.9 22.4 18.8 88 1.3 S 9 11 5 6 1013.4 1012.4 3.0
 
Date/Time
EST
Temp
°C
App
Temp
°C
Dew
Point
°C
Rel
Hum
%
Delta-T
°C
Wind Press
QNH
hPa
Press
MSL
hPa
Rain since
9am
mm
Dir  Spd
km/h
Gust
km/h
Spd
kts
Gust
kts
21/11:30pm 20.7 22.5 18.8 89 1.2 S 7 9 4 5 1013.7 1012.7 3.0
21/11:00pm 20.8 22.9 18.9 89 1.2 S 6 7 3 4 1013.9 1012.9 3.0
21/10:30pm 20.7 22.2 19.0 90 1.1 SSW 9 11 5 6 1014.2 1013.2 3.0
21/10:00pm 20.7 22.6 19.0 90 1.1 S 7 9 4 5 1014.1 1013.1 3.0
21/09:30pm 21.0 22.6 19.1 89 1.2 S 9 13 5 7 1014.4 1013.4 3.0
21/09:00pm 20.5 22.1 18.3 87 1.4 SSW 7 9 4 5 1014.3 1013.3 3.0
21/08:30pm 20.6 22.1 18.0 85 1.6 SSW 7 9 4 5 1014.4 1013.4 2.8
21/08:00pm 20.4 22.2 18.2 87 1.4 SSW 6 7 3 4 1014.3 1013.3 2.8
21/07:30pm 20.4 22.0 18.3 88 1.3 SSW 7 7 4 4 1014.1 1013.1 2.8
21/07:00pm 20.7 21.2 18.3 86 1.5 SSW 13 19 7 10 1013.7 1012.7 2.6
21/06:30pm 20.8 21.5 18.9 89 1.2 SSW 13 17 7 9 1013.4 1012.4 2.6
21/06:00pm 21.2 22.6 18.6 85 1.6 SSW 9 13 5 7 1013.3 1012.3 2.2
21/05:30pm 21.4 23.8 18.0 81 2.1 SSE 2 6 1 3 1013.0 1012.0 2.2
21/05:00pm 22.2 23.3 18.0 77 2.6 NNE 9 15 5 8 1012.8 1011.8 2.0
21/04:30pm 22.7 25.4 17.8 74 3.1 CALM 0 2 0 1 1013.1 1012.1 2.0
21/04:00pm 22.9 25.6 17.8 73 3.2 CALM 0 0 0 0 1013.1 1012.1 2.0
21/03:30pm 23.1 25.0 17.6 71 3.4 SSW 4 6 2 3 1013.1 1012.1 2.0
21/03:00pm 23.6 24.5 18.3 72 3.4 SSW 11 13 6 7 1013.2 1012.2 2.0
21/02:30pm 24.1 25.8 18.5 71 3.6 S 7 11 4 6 1013.5 1012.5 2.0
21/02:00pm 23.4 25.6 17.4 69 3.7 N 2 4 1 2 1013.8 1012.8 2.0
21/01:30pm 23.3 24.8 17.7 71 3.5 NW 6 11 3 6 1014.0 1013.0 2.0
21/01:00pm 24.5 26.3 18.4 69 3.9 SSE 6 11 3 6 1014.4 1013.4 2.0
21/12:30pm 24.0 25.7 18.4 71 3.6 SE 7 13 4 7 1014.7 1013.7 2.0
21/12:00pm 23.1 24.7 17.8 72 3.3 SE 6 9 3 5 1015.1 1014.2 2.0
21/11:30am 23.1 24.9 18.4 75 3.0 E 6 13 3 7 1015.5 1014.5 2.0
21/11:00am 22.3 24.7 18.9 81 2.2 WNW 4 4 2 2 1015.9 1014.9 2.0
21/10:30am 22.4 25.0 18.4 78 2.5 WNW 2 4 1 2 1016.1 1015.1 1.2
21/10:00am 23.9 25.4 17.6 68 4.0 E 6 13 3 7 1016.2 1015.2 0.0
21/09:30am 25.4 25.6 15.7 55 5.9 ESE 9 15 5 8 1016.1 1015.1 0.0
21/09:00am 24.8 25.5 16.0 58 5.4 ENE 7 11 4 6 1016.1 1015.1 0.0
21/08:30am 24.6 25.0 16.3 60 5.1 ENE 9 17 5 9 1016.1 1015.1 0.0
21/08:00am 23.4 25.5 18.9 76 2.9 SE 6 9 3 5 1016.3 1015.3 0.0
21/07:30am 23.7 25.0 18.4 72 3.4 SE 9 13 5 7 1016.1 1015.1 0.0
21/07:00am 22.2 24.1 18.6 80 2.3 E 6 7 3 4 1015.8 1014.8 0.0
21/06:30am 21.8 23.4 18.2 80 2.3 E 7 9 4 5 1015.8 1014.8 0.0
21/06:00am 21.3 23.0 18.1 82 2.0 ENE 6 6 3 3 1015.8 1014.8 0.0
21/05:30am 21.0 22.3 17.2 79 2.3 NE 6 7 3 4 1015.7 1014.7 0.0
21/05:00am 21.3 22.6 17.5 79 2.4 NE 7 11 4 6 1015.5 1014.5 0.0

Other Formats:

Comma delimited format used in spreadsheet applications
http://www.bom.gov.au/fwo/IDQ60801/IDQ60801.94372.axf

JavaScript Object Notation format (JSON) in row-major order
http://www.bom.gov.au/fwo/IDQ60801/IDQ60801.94372.json